Terminal Aerodrome Forecast
Issued by NWS Missoula, MT

Home | Current Version | Previous Version | Text Only | Print | Product List | Glossary On
Versions: 1 2 3 4 5 6 7 8 9 10 11 12 13 14 15 16
000
FTUS45 KMSO 220522
TAFBTM
TAF
KBTM 220522Z 2206/2306 11005KT P6SM BKN060
     FM222000 09012G22KT P6SM VCSH BKN050 OVC090
     FM230100 11010KT P6SM BKN050=

USA.gov is the U.S. government's official web portal to all federal, state and local government web resources and services.